createdAt,value
2019-05-29T00:02:20.539Z,99619.98
2019-05-29T00:04:51.309Z,99626.59
2019-05-29T00:07:22.411Z,99627.80
2019-05-29T00:09:53.258Z,99633.68
2019-05-29T00:12:24.036Z,99631.56
2019-05-29T00:14:55.036Z,99644.09
2019-05-29T00:17:26.291Z,99634.86
2019-05-29T00:19:58.030Z,99638.99
2019-05-29T00:22:29.093Z,99638.17
2019-05-29T00:25:00.229Z,99642.30
2019-05-29T00:27:31.612Z,99648.09
2019-05-29T00:30:03.967Z,99645.95
2019-05-29T00:32:35.874Z,99647.12
2019-05-29T00:35:08.284Z,99652.08
2019-05-29T00:37:41.034Z,99646.19
2019-05-29T00:40:12.978Z,99652.81
2019-05-29T00:42:44.360Z,99655.54
2019-05-29T00:45:15.677Z,99660.23
2019-05-29T00:47:46.429Z,99663.44
2019-05-29T00:50:17.478Z,99662.73
2019-05-29T00:52:48.583Z,99663.70
2019-05-29T00:55:19.427Z,99667.22
2019-05-29T00:57:50.469Z,99669.83
2019-05-29T01:00:21.628Z,99670.39
2019-05-29T01:02:52.694Z,99683.05
2019-05-29T01:05:23.506Z,99672.89
2019-05-29T01:07:54.802Z,99682.55
2019-05-29T01:10:25.960Z,99681.38
2019-05-29T01:12:56.826Z,99683.75
2019-05-29T01:15:31.179Z,99686.34
2019-05-29T01:18:02.249Z,99694.38
2019-05-29T01:20:33.583Z,99699.93
2019-05-29T01:23:04.438Z,99704.19
2019-05-29T01:25:35.358Z,99706.92
2019-05-29T01:28:06.283Z,99709.28
2019-05-29T01:30:37.119Z,99711.91
2019-05-29T01:33:07.901Z,99714.03
2019-05-29T01:35:39.230Z,99708.70
2019-05-29T01:38:10.332Z,99713.07
2019-05-29T01:40:41.184Z,99712.95
2019-05-29T01:43:12.057Z,99716.28
2019-05-29T01:45:42.839Z,99719.00
2019-05-29T01:48:13.702Z,99723.38
2019-05-29T01:50:44.552Z,99728.00
2019-05-29T01:53:15.610Z,99722.31
2019-05-29T01:55:46.643Z,99727.05
2019-05-29T01:58:18.050Z,99728.10
2019-05-29T02:00:49.143Z,99730.47
2019-05-29T02:03:20.181Z,99733.20
2019-05-29T02:05:50.950Z,99731.42
2019-05-29T02:08:22.145Z,99737.11
2019-05-29T02:10:53.435Z,99747.39
2019-05-29T02:13:24.272Z,99743.73
2019-05-29T02:15:55.064Z,99759.34
2019-05-29T02:18:26.983Z,99765.23
2019-05-29T02:20:57.825Z,99767.03
2019-05-29T02:23:28.695Z,99765.58
2019-05-29T02:25:59.798Z,99760.74
2019-05-29T02:28:30.918Z,99766.90
2019-05-29T02:31:01.942Z,99767.14
2019-05-29T02:33:33.195Z,99767.73
2019-05-29T02:36:04.047Z,99763.59
2019-05-29T02:38:35.057Z,99769.37
2019-05-29T02:41:06.060Z,99770.08
2019-05-29T02:43:36.864Z,99770.33
2019-05-29T02:46:07.879Z,99781.09
2019-05-29T02:48:38.746Z,99784.39
2019-05-29T02:51:12.233Z,99783.23
2019-05-29T02:53:42.903Z,99787.47
2019-05-29T02:56:13.700Z,99789.23
2019-05-29T02:58:44.478Z,99785.11
2019-05-29T03:01:15.540Z,99794.34
2019-05-29T03:03:46.328Z,99796.33
2019-05-29T03:06:17.178Z,99800.00
2019-05-29T03:08:48.032Z,99802.83
2019-05-29T03:11:19.196Z,99798.23
2019-05-29T03:13:50.288Z,99802.00
2019-05-29T03:16:23.626Z,99804.84
2019-05-29T03:18:54.528Z,99804.02
2019-05-29T03:21:26.067Z,99806.16
2019-05-29T03:23:57.216Z,99816.32
2019-05-29T03:26:29.412Z,99814.53
2019-05-29T03:29:00.772Z,99818.33
2019-05-29T03:31:41.977Z,99824.93
2019-05-29T03:34:04.703Z,99828.86
2019-05-29T03:36:43.798Z,99830.86
2019-05-29T03:39:08.765Z,99834.76
2019-05-29T03:41:39.804Z,99833.92
2019-05-29T03:44:11.163Z,99839.36
2019-05-29T03:46:45.741Z,99841.63
2019-05-29T03:49:15.217Z,99846.81
2019-05-29T03:51:46.553Z,99848.72
2019-05-29T03:54:17.669Z,99852.88
2019-05-29T03:56:48.932Z,99859.02
2019-05-29T03:59:20.952Z,99855.10
2019-05-29T04:01:51.724Z,99855.00
2019-05-29T04:04:22.508Z,99859.50
2019-05-29T04:06:53.283Z,99862.67
2019-05-29T04:09:24.361Z,99869.67
2019-05-29T04:11:55.712Z,99867.41
2019-05-29T04:14:27.531Z,99877.84
2019-05-29T04:17:00.626Z,99878.43
2019-05-29T04:19:34.311Z,99890.97
2019-05-29T04:22:09.604Z,99886.58
2019-05-29T04:24:41.115Z,99890.47
2019-05-29T04:27:13.495Z,99895.09
2019-05-29T04:29:44.323Z,99898.86
2019-05-29T04:32:15.167Z,99902.79
2019-05-29T04:34:45.961Z,99904.91
2019-05-29T04:37:16.820Z,99906.80
2019-05-29T04:39:47.612Z,99908.47
2019-05-29T04:42:18.696Z,99914.59
2019-05-29T04:44:49.717Z,99920.63
2019-05-29T04:47:20.592Z,99936.37
2019-05-29T04:49:51.400Z,99931.36
2019-05-29T04:52:22.186Z,99931.83
2019-05-29T04:54:53.230Z,99934.77
2019-05-29T04:57:24.325Z,99935.52
2019-05-29T04:59:55.349Z,99935.01
2019-05-29T05:02:26.134Z,99940.12
2019-05-29T05:04:57.171Z,99944.95
2019-05-29T05:07:29.667Z,99946.36
2019-05-29T05:10:00.892Z,99948.58
2019-05-29T05:12:31.721Z,99952.57
2019-05-29T05:15:02.805Z,99951.62
2019-05-29T05:17:34.168Z,99962.67
2019-05-29T05:20:06.148Z,99962.86
2019-05-29T05:22:38.125Z,99961.30
2019-05-29T05:25:09.071Z,99962.94
2019-05-29T05:27:40.681Z,99962.68
2019-05-29T05:30:11.598Z,99975.06
2019-05-29T05:32:42.595Z,99974.49
2019-05-29T05:35:14.472Z,99982.61
2019-05-29T05:37:45.539Z,99987.48
2019-05-29T05:40:16.524Z,99991.31
2019-05-29T05:42:47.537Z,99994.79
2019-05-29T05:45:18.718Z,99994.63
2019-05-29T05:47:57.334Z,99994.63
2019-05-29T05:50:23.049Z,100011.83
2019-05-29T05:52:54.386Z,100011.83
2019-05-29T05:55:25.259Z,100020.64
2019-05-29T05:57:56.038Z,100021.73
2019-05-29T06:00:31.874Z,100021.73
2019-05-29T06:03:03.804Z,100010.09
2019-05-29T06:05:36.098Z,100032.35
2019-05-29T06:08:07.542Z,100034.05
2019-05-29T06:10:38.399Z,100037.92
2019-05-29T06:13:09.967Z,100031.17
2019-05-29T06:15:41.003Z,100042.42
2019-05-29T06:18:21.144Z,100034.17
2019-05-29T06:20:44.604Z,100047.63
2019-05-29T06:23:15.540Z,100040.70
2019-05-29T06:25:46.393Z,100049.58
2019-05-29T06:28:17.239Z,100056.81
2019-05-29T06:30:48.492Z,100054.27
2019-05-29T06:33:19.464Z,100050.95
2019-05-29T06:35:50.509Z,100062.24
2019-05-29T06:38:21.795Z,100069.42
2019-05-29T06:40:52.722Z,100068.11
2019-05-29T06:43:24.882Z,100073.16
2019-05-29T06:45:56.502Z,100075.39
2019-05-29T06:48:42.400Z,100075.39
2019-05-29T06:51:00.951Z,100068.55
2019-05-29T06:53:32.229Z,100074.80
2019-05-29T06:56:03.625Z,100074.80
2019-05-29T06:58:35.879Z,100081.28
2019-05-29T07:01:06.965Z,100076.75
2019-05-29T07:03:37.819Z,100088.34
2019-05-29T07:06:08.726Z,100095.31
2019-05-29T07:08:44.221Z,100104.02
2019-05-29T07:11:12.339Z,100093.48
2019-05-29T07:13:47.057Z,100110.59
2019-05-29T07:16:17.204Z,100112.36
2019-05-29T07:19:23.335Z,100118.82
2019-05-29T07:21:21.184Z,100120.02
2019-05-29T07:23:52.209Z,100124.47
2019-05-29T07:26:23.074Z,100127.20
2019-05-29T07:29:06.423Z,100130.74
2019-05-29T07:31:26.322Z,100133.22
2019-05-29T07:33:57.395Z,100137.05
2019-05-29T07:36:28.587Z,100137.38
2019-05-29T07:39:03.515Z,100143.50
2019-05-29T07:41:32.735Z,100148.80
2019-05-29T07:44:03.684Z,100153.20
2019-05-29T07:46:35.028Z,100151.57
2019-05-29T07:49:06.014Z,100150.89
2019-05-29T07:51:38.138Z,100159.02
2019-05-29T07:54:09.548Z,100158.34
2019-05-29T07:56:40.725Z,100158.47
2019-05-29T07:59:11.540Z,100159.64
2019-05-29T08:01:42.892Z,100162.36
2019-05-29T08:04:13.766Z,100159.17
2019-05-29T08:06:50.737Z,100167.55
2019-05-29T08:09:17.110Z,100164.52
2019-05-29T08:11:50.004Z,100163.17
2019-05-29T08:14:21.048Z,100164.08
2019-05-29T08:16:51.930Z,100167.07
2019-05-29T08:19:23.241Z,100166.02
2019-05-29T08:21:54.614Z,100171.73
2019-05-29T08:24:25.847Z,100172.44
2019-05-29T08:26:57.302Z,100173.00
2019-05-29T08:29:28.099Z,100176.28
2019-05-29T08:31:59.212Z,100178.91
2019-05-29T08:34:30.029Z,100182.17
2019-05-29T08:37:07.002Z,100185.87
2019-05-29T08:39:36.781Z,100186.42
2019-05-29T08:42:22.656Z,100190.55
2019-05-29T08:44:39.656Z,100191.66
2019-05-29T08:47:11.208Z,100195.98
2019-05-29T08:49:42.284Z,100195.88
2019-05-29T08:52:13.422Z,100197.51
2019-05-29T08:54:44.271Z,100200.39
2019-05-29T08:57:15.386Z,100204.31
2019-05-29T08:59:46.456Z,100199.58
2019-05-29T09:02:17.306Z,100200.36
2019-05-29T09:04:50.180Z,100205.36
2019-05-29T09:07:22.207Z,100200.13
2019-05-29T09:09:53.363Z,100208.15
2019-05-29T09:12:24.234Z,100207.30
2019-05-29T09:14:55.534Z,100206.98
2019-05-29T09:17:26.622Z,100212.61
2019-05-29T09:19:57.423Z,100217.56
2019-05-29T09:22:28.191Z,100220.48
2019-05-29T09:24:59.314Z,100226.06
2019-05-29T09:27:31.256Z,100229.50
2019-05-29T09:30:02.463Z,100230.33
2019-05-29T09:32:49.382Z,100225.85
2019-05-29T09:35:06.635Z,100231.29
2019-05-29T09:37:37.786Z,100230.50
2019-05-29T09:40:19.125Z,100223.30
2019-05-29T09:42:50.217Z,100232.12
2019-05-29T09:45:21.639Z,100230.45
2019-05-29T09:47:52.701Z,100234.16
2019-05-29T09:50:25.567Z,100236.83
2019-05-29T09:52:57.202Z,100238.69
2019-05-29T09:55:29.028Z,100230.93
2019-05-29T09:58:00.719Z,100232.53
2019-05-29T10:00:31.574Z,100232.29
2019-05-29T10:03:03.784Z,100234.05
2019-05-29T10:05:34.818Z,100234.81
2019-05-29T10:08:06.046Z,100235.45
2019-05-29T10:10:36.853Z,100238.56
2019-05-29T10:13:07.945Z,100237.50
2019-05-29T10:15:38.797Z,100234.57
2019-05-29T10:18:30.090Z,100237.36
2019-05-29T10:20:42.682Z,100234.80
2019-05-29T10:23:13.790Z,100241.31
2019-05-29T10:25:44.647Z,100236.12
2019-05-29T10:28:15.435Z,100235.19
2019-05-29T10:30:48.292Z,100239.73
2019-05-29T10:33:19.302Z,100242.52
2019-05-29T10:35:53.302Z,100239.53
2019-05-29T10:38:23.036Z,100242.42
2019-05-29T10:41:05.198Z,100245.30
2019-05-29T10:43:34.125Z,100245.14
2019-05-29T10:45:59.341Z,100245.53
2019-05-29T10:48:30.491Z,100248.47
2019-05-29T10:51:01.319Z,100243.44
2019-05-29T10:53:32.363Z,100238.16
2019-05-29T10:56:03.446Z,100240.45
2019-05-29T10:58:48.059Z,100247.08
2019-05-29T11:01:07.387Z,100241.59
2019-05-29T11:03:38.505Z,100251.41
2019-05-29T11:06:09.282Z,100242.77
2019-05-29T11:08:40.077Z,100245.98
2019-05-29T11:11:11.377Z,100238.41
2019-05-29T11:13:42.510Z,100238.00
2019-05-29T11:16:13.363Z,100248.80
2019-05-29T11:18:44.445Z,100252.39
2019-05-29T11:21:15.381Z,100248.73
2019-05-29T11:23:47.709Z,100251.44
2019-05-29T11:26:18.607Z,100245.16
2019-05-29T11:28:50.345Z,100243.33
2019-05-29T11:31:21.169Z,100246.14
2019-05-29T11:33:53.050Z,100243.12
2019-05-29T11:36:24.011Z,100246.27
2019-05-29T11:38:54.868Z,100245.82
2019-05-29T11:41:26.862Z,100252.61
2019-05-29T11:43:58.903Z,100243.19
2019-05-29T11:46:29.951Z,100252.44
2019-05-29T11:49:00.991Z,100253.19
2019-05-29T11:51:32.023Z,100249.49
2019-05-29T11:54:03.323Z,100246.92
2019-05-29T11:56:34.658Z,100243.12
2019-05-29T11:59:05.705Z,100243.31
2019-05-29T12:01:49.549Z,100248.83
2019-05-29T12:04:24.161Z,100244.88
2019-05-29T12:06:41.690Z,100239.24
2019-05-29T12:09:12.581Z,100247.96
2019-05-29T12:11:43.892Z,100257.09
2019-05-29T12:14:14.708Z,100244.30
2019-05-29T12:16:46.263Z,100248.20
2019-05-29T12:19:17.205Z,100246.71
2019-05-29T12:21:48.085Z,100244.41
2019-05-29T12:24:18.948Z,100246.35
2019-05-29T12:26:49.974Z,100248.34
2019-05-29T12:29:20.759Z,100239.06
2019-05-29T12:31:52.841Z,100246.31
2019-05-29T12:34:23.844Z,100254.88
2019-05-29T12:36:55.356Z,100250.34
2019-05-29T12:39:26.579Z,100253.22
2019-05-29T12:41:57.652Z,100253.91
2019-05-29T12:44:28.710Z,100255.62
2019-05-29T12:46:59.904Z,100252.83
2019-05-29T12:49:30.640Z,100253.44
2019-05-29T12:52:02.000Z,100251.83
2019-05-29T12:54:33.175Z,100254.99
2019-05-29T12:57:04.308Z,100247.77
2019-05-29T12:59:38.205Z,100259.54
2019-05-29T13:02:09.179Z,100252.09
2019-05-29T13:05:05.985Z,100251.30
2019-05-29T13:07:12.740Z,100259.95
2019-05-29T13:09:43.592Z,100261.74
2019-05-29T13:12:15.329Z,100270.69
2019-05-29T13:14:46.188Z,100275.55
2019-05-29T13:17:17.044Z,100278.77
2019-05-29T13:19:48.402Z,100282.19
2019-05-29T13:22:19.569Z,100286.52
2019-05-29T13:24:52.838Z,100287.14
2019-05-29T13:27:24.019Z,100292.25
2019-05-29T13:29:58.137Z,100283.03
2019-05-29T13:32:27.756Z,100283.63
2019-05-29T13:35:00.393Z,100284.78
2019-05-29T13:37:31.206Z,100283.20
2019-05-29T13:40:05.548Z,100282.41
2019-05-29T13:42:34.987Z,100289.45
2019-05-29T13:45:13.589Z,100287.68
2019-05-29T13:47:38.868Z,100283.14
2019-05-29T13:50:12.338Z,100283.60
2019-05-29T13:52:42.638Z,100276.36
2019-05-29T13:55:14.204Z,100281.30
2019-05-29T13:57:45.063Z,100285.07
2019-05-29T14:00:32.325Z,100283.14
2019-05-29T14:02:48.916Z,100282.55
2019-05-29T14:05:20.817Z,100286.52
2019-05-29T14:07:51.660Z,100278.52
2019-05-29T14:10:22.831Z,100278.87
2019-05-29T14:12:54.099Z,100286.08
2019-05-29T14:15:24.977Z,100283.56
2019-05-29T14:17:55.746Z,100275.98
2019-05-29T14:20:27.080Z,100281.97
2019-05-29T14:22:58.397Z,100280.67
2019-05-29T14:25:29.832Z,100282.52
2019-05-29T14:28:00.898Z,100281.21
2019-05-29T14:30:31.941Z,100284.55
2019-05-29T14:33:04.435Z,100285.17
2019-05-29T14:35:35.551Z,100288.92
2019-05-29T14:38:10.763Z,100282.83
2019-05-29T14:40:39.185Z,100284.77
2019-05-29T14:43:14.892Z,100285.86
2019-05-29T14:45:42.703Z,100280.28
2019-05-29T14:48:13.554Z,100282.93
2019-05-29T14:50:44.331Z,100278.22
2019-05-29T14:53:15.865Z,100282.42
2019-05-29T14:55:46.719Z,100278.13
2019-05-29T14:58:17.497Z,100278.64
2019-05-29T15:00:48.536Z,100281.28
2019-05-29T15:03:19.385Z,100276.32
2019-05-29T15:05:50.487Z,100276.58
2019-05-29T15:08:21.345Z,100280.30
2019-05-29T15:10:52.382Z,100283.52
2019-05-29T15:13:23.169Z,100278.02
2019-05-29T15:15:53.976Z,100284.31
2019-05-29T15:18:24.752Z,100277.88
2019-05-29T15:20:55.552Z,100279.92
2019-05-29T15:23:26.325Z,100285.75
2019-05-29T15:25:57.271Z,100290.24
2019-05-29T15:28:28.407Z,100285.90
2019-05-29T15:30:59.414Z,100279.97
2019-05-29T15:33:30.438Z,100293.05
2019-05-29T15:36:01.487Z,100287.95
2019-05-29T15:38:32.250Z,100298.85
2019-05-29T15:41:03.113Z,100293.73
2019-05-29T15:43:33.887Z,100292.53
2019-05-29T15:46:05.115Z,100292.76
2019-05-29T15:48:36.124Z,100289.78
2019-05-29T15:51:07.235Z,100293.16
2019-05-29T15:53:38.009Z,100301.17
2019-05-29T15:56:21.620Z,100300.84
2019-05-29T15:58:41.579Z,100291.58
2019-05-29T16:01:13.760Z,100295.84
2019-05-29T16:03:44.653Z,100288.30
2019-05-29T16:06:16.071Z,100289.62
2019-05-29T16:08:47.071Z,100286.97
2019-05-29T16:11:18.810Z,100284.00
2019-05-29T16:13:50.917Z,100286.33
2019-05-29T16:16:21.985Z,100283.33
2019-05-29T16:18:52.756Z,100289.91
2019-05-29T16:21:23.627Z,100286.95
2019-05-29T16:23:54.661Z,100293.23
2019-05-29T16:26:25.443Z,100291.25
2019-05-29T16:28:56.282Z,100289.95
2019-05-29T16:31:28.583Z,100292.06
2019-05-29T16:34:00.435Z,100294.17
2019-05-29T16:36:31.864Z,100291.27
2019-05-29T16:39:03.005Z,100295.62
2019-05-29T16:41:36.195Z,100296.14
2019-05-29T16:44:07.045Z,100302.00
2019-05-29T16:46:38.338Z,100301.00
2019-05-29T16:49:09.204Z,100308.17
2019-05-29T16:51:42.096Z,100305.33
2019-05-29T16:54:12.956Z,100314.61
2019-05-29T16:56:44.040Z,100311.23
2019-05-29T16:59:14.979Z,100310.82
2019-05-29T17:01:46.042Z,100316.00
2019-05-29T17:04:17.695Z,100325.34
2019-05-29T17:06:48.504Z,100324.28
2019-05-29T17:09:20.284Z,100323.39
2019-05-29T17:11:51.607Z,100321.61
2019-05-29T17:14:22.885Z,100324.41
2019-05-29T17:16:53.986Z,100316.74
2019-05-29T17:19:25.563Z,100323.36
2019-05-29T17:21:56.715Z,100319.80
2019-05-29T17:24:27.821Z,100320.29
2019-05-29T17:26:58.917Z,100330.00
2019-05-29T17:29:29.755Z,100327.86
2019-05-29T17:32:00.859Z,100329.26
2019-05-29T17:34:31.881Z,100328.30
2019-05-29T17:37:02.999Z,100325.73
2019-05-29T17:39:34.908Z,100328.11
2019-05-29T17:42:05.762Z,100331.67
2019-05-29T17:44:36.771Z,100338.48
2019-05-29T17:47:07.703Z,100338.00
2019-05-29T17:49:39.124Z,100334.48
2019-05-29T17:52:13.172Z,100336.91
2019-05-29T17:54:44.121Z,100341.26
2019-05-29T17:57:16.500Z,100342.52
2019-05-29T17:59:47.383Z,100345.64
2019-05-29T18:02:18.515Z,100340.84
2019-05-29T18:04:49.635Z,100344.30
2019-05-29T18:07:20.753Z,100344.06
2019-05-29T18:09:51.571Z,100346.09
2019-05-29T18:12:25.022Z,100355.83
2019-05-29T18:14:55.895Z,100355.39
2019-05-29T18:17:27.763Z,100353.05
2019-05-29T18:19:59.184Z,100355.63
2019-05-29T18:22:30.047Z,100355.83
2019-05-29T18:25:01.051Z,100361.08
2019-05-29T18:27:31.831Z,100363.90
2019-05-29T18:30:02.931Z,100371.43
2019-05-29T18:32:34.633Z,100373.15
2019-05-29T18:35:06.335Z,100375.41
2019-05-29T18:37:37.650Z,100375.95
2019-05-29T18:40:12.437Z,100374.91
2019-05-29T18:42:41.518Z,100373.69
2019-05-29T18:45:20.880Z,100379.47
2019-05-29T18:47:45.955Z,100382.33
2019-05-29T18:50:17.089Z,100384.02
2019-05-29T18:52:48.041Z,100382.83
2019-05-29T18:55:19.125Z,100379.86
2019-05-29T18:57:50.183Z,100386.11
2019-05-29T19:00:21.559Z,100386.30
2019-05-29T19:02:52.460Z,100396.78
2019-05-29T19:05:23.941Z,100402.73
2019-05-29T19:07:55.054Z,100402.39
2019-05-29T19:10:26.013Z,100406.39
2019-05-29T19:12:56.808Z,100414.84
2019-05-29T19:15:28.039Z,100423.94
2019-05-29T19:17:58.896Z,100418.41
2019-05-29T19:20:30.489Z,100425.03
2019-05-29T19:23:01.390Z,100426.97
2019-05-29T19:25:33.035Z,100439.33
2019-05-29T19:28:04.000Z,100446.25
2019-05-29T19:30:34.962Z,100451.70
2019-05-29T19:33:05.828Z,100452.05
2019-05-29T19:35:36.960Z,100451.34
2019-05-29T19:38:07.806Z,100464.00
2019-05-29T19:40:38.592Z,100464.34
2019-05-29T19:43:09.695Z,100470.49
2019-05-29T19:45:41.120Z,100472.50
2019-05-29T19:48:11.924Z,100467.04
2019-05-29T19:50:42.707Z,100480.31
2019-05-29T19:53:13.974Z,100488.09
2019-05-29T19:55:45.084Z,100480.81
2019-05-29T19:58:16.320Z,100488.88
2019-05-29T20:00:47.552Z,100484.32
2019-05-29T20:03:20.203Z,100493.06
2019-05-29T20:05:51.305Z,100497.66
2019-05-29T20:08:22.582Z,100501.19
2019-05-29T20:10:53.444Z,100498.52
2019-05-29T20:13:24.553Z,100503.94
2019-05-29T20:15:55.610Z,100510.05
2019-05-29T20:18:27.947Z,100516.38
2019-05-29T20:20:59.058Z,100514.24
2019-05-29T20:23:30.555Z,100515.91
2019-05-29T20:26:01.328Z,100523.44
2019-05-29T20:28:32.172Z,100523.74
2019-05-29T20:31:03.239Z,100526.59
2019-05-29T20:33:34.566Z,100526.09
2019-05-29T20:36:05.536Z,100525.84
2019-05-29T20:38:37.180Z,100526.14
2019-05-29T20:41:07.960Z,100533.75
2019-05-29T20:43:39.764Z,100537.86
2019-05-29T20:46:10.616Z,100535.00
2019-05-29T20:48:42.985Z,100542.02
2019-05-29T20:51:13.775Z,100539.13
2019-05-29T20:53:44.567Z,100541.34
2019-05-29T20:56:15.353Z,100539.33
2019-05-29T20:58:46.480Z,100539.92
2019-05-29T21:01:17.579Z,100548.52
2019-05-29T21:03:48.398Z,100532.15
2019-05-29T21:06:19.777Z,100542.77
2019-05-29T21:08:51.254Z,100547.42
2019-05-29T21:11:22.110Z,100551.95
2019-05-29T21:13:53.209Z,100559.34
2019-05-29T21:16:24.335Z,100557.31
2019-05-29T21:18:55.809Z,100553.23
2019-05-29T21:21:26.960Z,100551.39
2019-05-29T21:23:58.041Z,100550.55
2019-05-29T21:26:29.566Z,100554.40
2019-05-29T21:29:00.674Z,100558.59
2019-05-29T21:31:31.572Z,100557.69
2019-05-29T21:34:02.660Z,100558.00
2019-05-29T21:36:33.991Z,100555.22
2019-05-29T21:39:06.906Z,100558.93
2019-05-29T21:41:38.369Z,100559.67
2019-05-29T21:44:09.450Z,100563.59
2019-05-29T21:46:40.959Z,100567.69
2019-05-29T21:49:11.801Z,100571.33
2019-05-29T21:51:43.632Z,100573.45
2019-05-29T21:54:14.749Z,100573.38
2019-05-29T21:56:45.902Z,100579.05
2019-05-29T21:59:16.695Z,100580.22
2019-05-29T22:01:48.373Z,100578.28
2019-05-29T22:04:19.506Z,100581.84
2019-05-29T22:06:50.620Z,100581.01
2019-05-29T22:09:21.651Z,100579.62
2019-05-29T22:11:52.702Z,100580.33
2019-05-29T22:14:23.823Z,100580.89
2019-05-29T22:16:54.970Z,100573.66
2019-05-29T22:19:25.871Z,100577.23
2019-05-29T22:21:57.159Z,100578.34
2019-05-29T22:24:28.262Z,100573.44
2019-05-29T22:26:59.389Z,100575.58
2019-05-29T22:29:30.658Z,100573.66
2019-05-29T22:32:01.744Z,100570.66
2019-05-29T22:34:33.636Z,100564.73
2019-05-29T22:37:04.575Z,100567.23
2019-05-29T22:39:35.429Z,100568.45
2019-05-29T22:42:07.297Z,100571.70
2019-05-29T22:44:38.843Z,100575.69
2019-05-29T22:47:10.284Z,100575.15
2019-05-29T22:49:41.073Z,100573.45
2019-05-29T22:52:12.347Z,100576.03
2019-05-29T22:54:43.218Z,100574.42
2019-05-29T22:57:14.388Z,100575.30
2019-05-29T22:59:45.737Z,100577.00
2019-05-29T23:02:16.524Z,100574.81
2019-05-29T23:04:47.777Z,100575.03
2019-05-29T23:07:18.646Z,100576.40
2019-05-29T23:09:49.411Z,100573.94
2019-05-29T23:12:20.513Z,100571.69
2019-05-29T23:14:52.477Z,100570.93
2019-05-29T23:17:24.330Z,100575.73
2019-05-29T23:19:56.669Z,100571.08
2019-05-29T23:22:27.488Z,100572.13
2019-05-29T23:24:59.202Z,100570.93
2019-05-29T23:27:30.337Z,100570.41
2019-05-29T23:30:01.165Z,100572.37
2019-05-29T23:32:31.993Z,100575.61
2019-05-29T23:35:03.501Z,100572.92
2019-05-29T23:37:34.375Z,100569.45
2019-05-29T23:40:05.734Z,100569.95
2019-05-29T23:42:36.608Z,100569.72
2019-05-29T23:45:07.885Z,100569.86
2019-05-29T23:47:38.773Z,100570.47
2019-05-29T23:50:10.007Z,100570.16
2019-05-29T23:52:40.806Z,100572.87
2019-05-29T23:55:12.124Z,100565.73
2019-05-29T23:57:42.990Z,100566.94
